This is the latest recevied weather packets stored in our database for station/object E27IHO-13. If no packets are shown the sender has not sent any weather packets the latest 10 day(s).
| Time | Temp. | Humidity | Pressure | Rain* | Wind** | Luminosity | Snow |
|---|---|---|---|---|---|---|---|
| 1777613117 | 36.11° C | 53% | 1010 hPa | - | - | 0 W/m² | - |
| 1777612795 | 36.11° C | 53% | 1010 hPa | - | - | 0 W/m² | - |
| 1777612473 | 36.11° C | 54% | 1010 hPa | - | - | 0 W/m² | - |
| 1777612151 | 36.11° C | 52% | 1010 hPa | - | - | 0 W/m² | - |
| 1777611829 | 35.56° C | 55% | 1010 hPa | - | - | 0 W/m² | - |
| 1777611507 | 35.56° C | 56% | 1010 hPa | - | - | 0 W/m² | - |
| 1777611185 | 35° C | 56% | 1010 hPa | - | - | 0 W/m² | - |
| 1777610862 | 35° C | 56% | 1010 hPa | - | - | 0 W/m² | - |
| 1777610540 | 35° C | 55% | 1010 hPa | - | - | 0 W/m² | - |
| 1777610219 | 35.56° C | 53% | 1011 hPa | - | - | 0 W/m² | - |
| 1777609897 | 35.56° C | 54% | 1011 hPa | - | - | 0 W/m² | - |
| 1777609575 | 35.56° C | 54% | 1011 hPa | - | - | 0 W/m² | - |
| 1777609253 | 35.56° C | 54% | 1011 hPa | - | - | 0 W/m² | - |
| 1777608931 | 35.56° C | 50% | 1011 hPa | - | - | 0 W/m² | - |
| 1777608608 | 36.11° C | 49% | 1011 hPa | - | - | 0 W/m² | - |
| 1777608286 | 35.56° C | 49% | 1011 hPa | - | - | 0 W/m² | - |
| 1777607964 | 35.56° C | 51% | 1011 hPa | - | - | 0 W/m² | - |
| 1777607643 | 36.11° C | 49% | 1011 hPa | - | - | 0 W/m² | - |
| 1777607320 | 35° C | 53% | 1011 hPa | - | - | 0 W/m² | - |
| 1777606999 | 35° C | 54% | 1011 hPa | - | - | 0 W/m² | - |
| 1777606676 | 34.44° C | 55% | 1011 hPa | - | - | 0 W/m² | - |
| 1777606354 | 34.44° C | 56% | 1011 hPa | - | - | 0 W/m² | - |
| 1777606032 | 34.44° C | 55% | 1011 hPa | - | - | 0 W/m² | - |
| 1777605710 | 35° C | 54% | 1011 hPa | - | - | 0 W/m² | - |
| 1777605388 | 35° C | 53% | 1011 hPa | - | - | 0 W/m² | - |
* Rain since midnight (hover to see other rain measurements)
** Current wind speed in m/s (hover to see current wind gust speed)